Date,TemperatureHighF,TemperatureAvgF,TemperatureLowF,DewpointHighF,DewpointAvgF,DewpointLowF,HumidityHigh,HumidityAvg,HumidityLow,PressureMaxIn,PressureMinIn,WindSpeedMaxMPH,WindSpeedAvgMPH,GustSpeedMaxMPH,PrecipitationSumIn
2013-1-1,58,51,46,46,37,23,70,60,32,30.29,30.14,4,0,6,0.00
2013-1-2,64,53,43,49,35,21,70,51,32,30.18,30.08,7,1,10,0.00
2013-1-3,61,52,44,52,38,27,77,60,44,30.23,30.09,5,1,10,0.00
2013-1-4,61,52,44,46,31,21,66,44,32,30.33,30.22,5,1,7,0.00
2013-1-5,61,51,44,50,37,23,76,59,40,30.34,30.23,6,1,8,0.00
2013-1-6,61,52,47,51,46,37,94,81,67,30.26,30.07,8,1,12,0.38
2013-1-7,61,52,44,50,44,40,95,77,55,30.15,30.01,11,2,15,0.00
2013-1-8,64,53,46,50,44,36,86,72,55,30.16,30.07,2,0,3,0.00
2013-1-9,62,55,48,55,49,41,90,80,63,30.18,30.07,3,0,6,0.00
2013-1-10,57,54,48,51,44,29,91,69,47,30.15,29.99,21,6,25,0.01
2013-1-11,55,48,39,38,31,24,65,52,40,30.26,30.12,11,3,19,0.00
2013-1-12,58,47,39,37,30,24,64,52,37,30.22,30.13,2,0,5,0.00
2013-1-13,58,47,40,40,30,22,67,52,30,30.22,30.11,6,1,9,0.00
2013-1-14,58,47,38,33,17,4,57,31,11,30.39,30.18,11,2,15,0.00
2013-1-15,57,48,40,39,26,12,62,44,26,30.51,30.38,9,2,12,0.00
2013-1-16,58,51,42,50,38,27,78,64,45,30.41,30.17,7,1,8,0.00
2013-1-17,67,56,46,53,38,29,72,53,35,30.21,30.08,6,1,8,0.00
2013-1-18,66,57,48,50,37,27,75,48,28,30.17,30.08,5,0,9,0.00
2013-1-19,66,57,48,52,34,26,68,43,31,30.22,30.10,5,1,6,0.00
2013-1-20,64,56,48,51,36,22,66,47,30,30.17,30.03,4,1,6,0.00
2013-1-21,67,56,48,54,37,26,72,49,29,30.13,30.02,2,0,4,0.00
2013-1-22,66,58,48,48,33,21,66,40,23,30.13,30.04,3,0,6,0.00
2013-1-23,75,63,56,52,39,26,75,43,25,30.17,30.04,6,1,10,0.00
2013-1-24,64,60,55,56,54,50,90,81,74,30.23,30.13,4,0,7,0.19
2013-1-25,64,60,58,61,58,56,96,93,85,30.15,29.98,5,0,8,0.23
2013-1-26,60,58,55,59,57,54,98,97,95,30.06,29.93,5,0,6,0.03
2013-1-27,59,55,53,55,50,46,98,84,71,30.09,30.02,5,2,9,0.02
2013-1-28,60,52,44,48,42,38,91,72,52,30.24,30.06,11,3,16,0.00
2013-1-29,61,50,43,48,41,36,78,70,55,30.30,30.21,4,0,5,0.00
2013-1-30,60,53,46,53,45,40,85,74,60,30.39,30.25,5,1,7,0.00
2013-1-31,63,55,47,54,47,40,82,74,63,30.29,30.13,7,1,8,0.00
2013-2-1,64,57,50,58,50,41,88,77,61,30.21,30.13,2,0,4,0.00
2013-2-2,65,58,54,56,51,46,87,77,53,30.23,30.12,5,1,7,0.00
2013-2-3,64,59,53,57,52,47,88,78,59,30.17,30.05,3,0,6,0.00
2013-2-4,58,53,48,53,50,44,95,89,81,30.14,30.03,6,1,9,0.00
2013-2-5,56,53,49,51,50,48,95,89,82,30.17,30.05,2,0,4,0.00
2013-2-6,65,56,50,53,50,47,89,79,64,30.16,30.05,4,0,6,0.00
2013-2-7,62,54,47,54,48,44,90,81,72,30.19,30.06,4,1,8,0.00
2013-2-8,55,50,43,49,44,40,90,79,69,30.08,29.96,12,3,23,0.27
2013-2-9,59,48,40,46,41,37,91,77,60,30.16,30.00,3,0,5,0.01
2013-2-10,59,50,42,46,42,36,82,74,60,30.17,30.07,2,0,5,0.00
2013-2-11,60,51,43,50,44,38,83,77,61,30.29,30.11,7,1,12,0.00
2013-2-12,63,52,43,50,40,29,79,64,49,30.40,30.29,4,0,8,0.00
2013-2-13,63,52,44,54,44,35,85,74,55,30.32,30.18,7,1,8,0.00
2013-2-14,61,53,45,55,48,39,89,83,73,30.25,30.10,8,2,10,0.00
2013-2-15,69,60,49,54,41,26,91,53,23,30.21,30.14,5,1,6,0.00
2013-2-16,67,60,53,52,38,25,65,45,24,30.17,30.01,5,1,7,0.00
2013-2-17,60,55,50,52,45,30,85,70,42,30.08,29.99,5,2,7,0.00
2013-2-18,59,55,52,50,47,43,80,74,65,30.11,30.01,5,1,9,0.00
2013-2-19,56,53,49,49,44,41,89,74,64,30.05,29.83,5,2,12,0.03
2013-2-20,60,52,45,45,40,32,79,64,48,30.05,29.77,15,5,26,0.01
2013-2-21,59,52,47,49,44,39,81,73,60,30.15,30.02,6,2,8,0.01
2013-2-22,64,52,44,52,44,36,83,73,63,30.25,30.15,2,0,4,0.01
2013-2-23,63,53,44,52,44,35,86,72,51,30.22,29.98,1,0,4,0.00
2013-2-24,56,49,46,50,45,43,90,86,78,30.15,30.04,0,0,3,0.00
2013-2-25,62,53,45,51,37,20,82,57,27,30.26,30.12,4,1,8,0.00
2013-2-26,65,53,44,52,44,31,88,71,55,30.15,30.03,4,1,8,0.00
2013-2-27,67,57,50,51,38,20,75,49,24,30.30,30.16,4,1,7,0.00
2013-2-28,68,58,48,54,37,23,76,46,26,30.34,30.26,4,1,7,0.00
2013-3-1,73,63,53,50,38,26,56,41,21,30.33,30.17,4,1,7,0.00
2013-3-2,70,62,55,54,44,30,77,52,33,30.22,30.10,3,1,6,0.00
2013-3-3,65,58,52,57,50,36,89,77,47,30.15,30.03,3,1,7,0.00
2013-3-4,67,58,52,55,52,48,87,80,64,30.14,30.07,3,1,6,0.00
2013-3-5,60,56,54,54,51,49,90,85,79,30.18,30.09,4,1,6,0.00
2013-3-6,65,57,51,51,48,44,85,73,56,30.20,30.07,8,1,10,0.00
2013-3-7,58,54,52,52,50,45,94,86,76,30.07,29.92,5,1,6,0.07
2013-3-8,58,53,48,50,47,44,93,81,67,30.09,29.83,13,3,25,0.33
2013-3-9,60,55,51,50,47,44,84,75,66,30.26,30.09,13,3,19,0.00
2013-3-10,63,55,46,55,47,42,84,75,51,30.31,30.19,6,1,9,0.00
2013-3-11,66,56,48,56,48,35,94,75,58,30.23,30.09,5,1,10,0.00
2013-3-12,59,53,47,55,51,45,97,93,87,30.14,30.05,7,2,11,0.01
2013-3-13,57,53,48,54,51,47,97,95,91,30.17,30.08,6,1,10,0.00
2013-3-14,58,54,50,56,52,49,98,95,91,30.14,30.05,9,2,14,0.01
2013-3-15,57,54,52,54,52,51,97,95,91,30.10,30.00,2,0,5,0.00
2013-3-16,62,55,52,54,52,50,95,88,74,30.03,29.95,3,1,5,0.00
2013-3-17,67,58,54,55,52,51,90,83,67,30.05,29.98,4,1,6,0.00
2013-3-18,64,58,55,53,52,50,88,81,67,30.13,30.03,5,1,8,0.00
2013-3-19,66,57,52,56,52,49,90,85,69,30.17,30.09,5,1,8,0.00
2013-3-20,61,57,52,56,54,50,93,89,84,30.13,30.02,5,1,10,0.00
2013-3-21,67,58,53,59,54,51,94,87,75,30.02,29.86,3,1,5,0.00
2013-3-22,68,59,56,57,54,52,90,83,66,29.96,29.86,4,1,7,0.00
2013-3-23,68,59,53,56,53,48,88,80,66,30.06,29.95,3,0,6,0.00
2013-3-24,68,59,54,58,54,51,92,85,70,30.06,29.92,8,1,10,0.00
2013-3-25,67,59,54,59,55,52,93,87,74,30.02,29.93,4,0,6,0.00
2013-3-26,65,58,54,56,54,51,92,86,73,30.02,29.95,3,0,5,0.00
2013-3-27,63,58,56,55,53,51,87,82,75,30.09,29.97,4,1,7,0.00
2013-3-28,67,59,54,58,54,51,92,85,73,30.11,30.04,9,2,12,0.00
2013-3-29,63,58,57,56,55,54,93,88,79,30.15,30.09,4,1,8,0.00
2013-3-30,66,59,55,58,55,53,94,88,76,30.18,30.10,6,1,10,0.00
2013-3-31,64,59,54,58,55,51,91,87,76,30.17,30.10,7,2,12,0.00
2013-4-1,68,60,56,56,54,51,91,82,64,30.21,30.12,11,3,15,0.00
2013-4-2,68,59,55,56,54,52,91,84,65,30.14,30.03,3,1,6,0.00
2013-4-3,65,59,55,58,55,52,91,87,76,30.13,30.03,3,0,7,0.00
2013-4-4,66,60,56,58,56,54,92,87,77,30.14,30.05,9,2,11,0.00
2013-4-5,66,60,58,59,57,54,94,88,76,30.14,30.05,4,1,7,0.00
2013-4-6,68,62,58,60,57,54,90,83,71,30.12,30.00,3,1,6,0.00
2013-4-7,66,59,54,58,54,50,90,84,72,30.01,29.86,4,1,7,0.00
2013-4-8,62,59,55,56,52,48,89,79,68,29.86,29.74,13,5,21,0.00
2013-4-9,66,58,50,54,49,43,82,73,53,30.04,29.85,8,2,11,0.00
2013-4-10,68,59,50,58,50,40,77,71,59,30.12,30.03,4,1,6,0.00
2013-4-11,64,59,54,56,50,37,84,72,52,29.98,29.85,8,3,12,0.00
2013-4-12,66,59,58,56,53,51,89,81,69,29.93,29.82,6,2,10,0.00
2013-4-13,58,57,56,55,54,50,93,87,82,29.96,29.89,4,2,6,0.00
2013-4-14,60,56,54,54,52,50,94,85,79,29.94,29.88,4,2,7,0.00
2013-4-15,62,58,55,56,53,49,92,84,79,29.97,29.89,4,2,10,0.02
2013-4-16,64,56,53,50,48,46,80,73,55,30.02,29.92,12,3,13,0.01
2013-4-26,68,61,54,59,55,50,91,82,71,30.19,30.13,8,3,13,0.00
2013-4-27,68,61,56,60,57,53,93,87,73,30.19,30.03,5,1,9,0.00
2013-4-28,65,60,58,58,56,55,93,89,78,30.07,29.91,2,1,6,0.00
2013-4-29,65,60,57,58,56,54,94,88,78,29.95,29.83,3,2,7,0.00
2013-4-30,64,60,58,57,55,53,88,83,77,29.94,29.87,5,3,9,0.00
2013-5-1,70,63,58,61,58,56,92,83,70,30.12,29.93,3,1,8,0.00
2013-5-2,73,64,58,63,59,55,90,84,71,30.14,30.00,6,2,11,0.00
2013-5-3,77,66,54,65,58,48,90,78,48,30.04,29.81,5,1,8,0.00
2013-5-4,66,62,59,60,56,53,91,82,74,29.90,29.80,10,5,13,0.00
2013-5-5,64,61,59,56,55,54,87,81,73,29.99,29.87,6,3,9,0.00
2013-5-6,65,61,58,60,58,55,96,89,74,30.03,29.95,12,4,14,0.11
2013-5-7,71,63,58,58,56,53,90,79,56,30.11,30.02,4,1,7,0.01
2013-5-8,70,63,57,60,57,54,90,81,67,30.13,30.10,8,2,12,0.02
2013-5-9,68,62,56,59,56,52,89,82,72,30.13,30.07,2,1,5,0.00
2013-5-10,72,64,58,62,58,54,90,82,70,30.12,30.04,5,1,11,0.00
2013-5-11,69,64,61,62,60,58,95,89,78,30.11,30.01,7,2,13,0.00
2013-5-12,69,64,61,64,62,60,96,92,80,30.08,29.93,7,2,12,0.00
2013-5-13,75,67,61,68,62,59,94,85,75,29.99,29.89,8,2,13,0.01
2013-5-14,71,65,60,62,59,56,91,83,73,30.01,29.93,6,2,9,0.00
2013-5-15,66,62,60,58,56,55,88,82,76,30.07,30.00,5,2,9,0.00
2013-5-16,68,64,61,60,57,55,86,80,74,30.01,29.94,4,2,7,0.00
2013-5-17,71,64,61,61,58,56,88,82,70,30.04,29.94,5,2,9,0.00
2013-5-18,69,64,60,61,58,56,86,81,71,30.07,30.00,4,2,8,0.00
2013-5-19,69,64,61,60,58,56,88,81,73,30.01,29.92,3,1,6,0.00
2013-5-20,74,65,61,63,60,58,91,85,69,29.98,29.92,3,1,7,0.00
2013-5-21,69,64,63,62,60,58,89,86,78,29.97,29.88,4,2,6,0.00
2013-5-22,66,64,62,59,58,56,87,80,74,29.89,29.82,6,3,8,0.00
2013-5-23,66,63,60,58,56,54,83,78,71,29.96,29.86,9,3,11,0.00
2013-5-24,64,62,59,57,55,53,84,79,74,30.03,29.94,6,2,9,0.00
2013-5-25,70,62,54,60,54,49,84,78,68,30.06,30.01,5,1,7,0.00
2013-5-26,65,62,59,57,56,53,85,80,73,30.09,30.02,6,2,9,0.00
2013-5-27,68,63,56,61,57,53,88,82,76,30.04,29.90,4,1,7,0.00
2013-5-28,73,65,62,63,59,57,88,81,69,29.92,29.79,5,2,8,0.00
2013-5-29,73,66,62,64,61,58,90,84,72,29.84,29.76,7,2,8,0.00
2013-5-30,69,65,61,62,60,57,88,84,78,29.91,29.79,6,3,10,0.00
2013-5-31,74,66,62,63,60,58,90,82,68,29.93,29.84,5,1,10,0.00
2013-6-1,74,66,63,65,61,60,89,84,72,29.88,29.80,4,1,7,0.00
2013-6-2,66,64,63,61,60,58,92,87,81,29.87,29.80,5,2,11,0.00
2013-6-3,68,64,62,60,59,57,89,83,75,29.92,29.83,6,3,9,0.00
2013-6-4,72,65,62,61,58,57,85,79,66,29.99,29.92,8,2,11,0.00
2013-6-5,72,65,62,62,59,58,89,81,71,30.02,29.93,11,4,13,0.00
2013-6-6,70,64,60,62,59,57,89,85,74,29.98,29.91,7,2,9,0.00
2013-6-7,67,62,61,61,59,57,90,87,81,29.94,29.82,4,1,6,0.00
2013-6-8,64,62,60,60,58,58,92,89,84,29.94,29.82,6,2,7,0.00
2013-6-9,64,62,60,60,58,56,92,88,81,29.96,29.91,5,1,7,0.00
2013-6-10,74,66,61,62,59,56,89,79,64,29.98,29.92,5,1,7,0.00
2013-6-11,73,65,60,65,61,57,91,86,75,29.97,29.91,10,2,11,0.00
2013-6-12,71,65,62,64,60,59,92,86,76,30.05,29.95,3,1,5,0.00
2013-6-13,73,66,63,63,60,59,88,83,68,30.04,29.93,4,1,7,0.00
2013-6-14,67,63,61,60,58,56,90,84,77,29.95,29.89,6,3,8,0.00
2013-6-15,71,64,60,60,58,56,88,80,68,30.00,29.92,4,1,7,0.00
2013-6-16,74,66,62,62,59,56,89,77,63,30.06,29.97,6,1,10,0.00
2013-6-17,73,66,62,64,61,59,91,84,70,30.01,29.92,2,0,5,0.00
2013-6-18,69,64,62,63,60,59,91,87,79,29.95,29.87,4,1,6,0.00
2013-6-19,75,67,62,64,60,57,89,81,67,29.90,29.82,2,1,7,0.00
2013-6-20,75,67,62,66,62,59,90,84,72,29.89,29.82,4,1,7,0.00
2013-6-21,70,65,62,63,61,59,92,86,79,29.93,29.85,4,2,7,0.00
2013-6-22,71,65,63,62,60,58,91,84,75,29.95,29.85,7,2,7,0.00
2013-6-23,68,65,62,61,59,57,87,82,74,29.91,29.83,6,2,8,0.00
2013-6-24,71,65,61,63,61,58,94,86,73,29.97,29.86,5,1,8,0.05
2013-6-25,71,66,64,65,63,60,92,88,82,30.03,29.92,10,3,13,0.00
2013-6-26,72,67,64,66,64,62,93,90,79,30.01,29.92,6,1,10,0.00
2013-6-27,70,66,64,66,64,62,96,92,86,30.05,29.99,3,1,5,0.00
2013-6-28,73,68,64,68,65,62,96,91,82,30.02,29.89,5,1,7,0.00
2013-6-29,72,68,64,68,66,63,97,92,83,29.89,29.76,7,1,8,0.00
2013-6-30,74,69,65,70,66,63,95,91,84,29.83,29.73,7,2,11,0.01
2013-7-1,76,69,66,69,66,64,95,90,78,29.90,29.83,3,1,5,0.00
2013-7-2,69,68,67,66,65,64,96,92,87,30.02,29.89,4,1,7,0.00
2013-7-3,71,68,65,68,65,63,95,91,85,29.95,29.83,5,2,8,0.00
2013-7-4,76,67,64,67,64,62,93,87,73,29.86,29.79,4,1,6,0.00
2013-7-5,73,67,65,66,63,62,90,87,78,29.87,29.80,5,1,7,0.00
2013-7-6,71,67,66,67,63,62,90,88,84,29.85,29.78,2,0,5,0.00
2013-7-7,74,69,66,67,64,62,91,86,77,29.88,29.79,8,2,12,0.00
2013-7-8,72,67,64,67,64,62,93,90,83,29.95,29.87,13,2,15,0.00
2013-7-9,75,68,64,68,65,62,94,88,77,30.03,29.92,4,1,7,0.00
2013-7-10,72,69,68,68,66,65,94,91,87,30.00,29.92,4,1,7,0.00
2013-7-11,71,69,68,68,66,65,92,91,89,29.99,29.91,4,1,7,0.00
2013-7-12,78,70,67,70,66,64,92,87,74,29.95,29.87,7,1,11,0.00
2013-7-13,75,70,67,68,65,63,89,85,73,29.97,29.88,6,1,9,0.00
2013-7-14,78,70,67,69,66,63,91,85,73,29.95,29.85,3,1,5,0.00
2013-7-15,79,70,66,69,66,63,91,85,70,29.89,29.82,8,2,11,0.00
2013-7-16,74,68,63,67,63,60,92,85,76,30.00,29.87,8,2,12,0.00
2013-7-17,73,67,59,66,63,57,94,86,78,30.03,29.97,10,3,14,0.00
2013-7-18,76,67,61,66,63,59,94,86,71,30.02,29.88,9,2,12,0.01
2013-7-20,68,66,64,64,62,62,91,89,86,29.91,29.83,3,1,6,0.00
2013-7-21,68,66,65,64,63,62,92,89,87,29.95,29.82,2,1,7,0.00
2013-7-22,75,69,64,69,65,62,92,87,80,29.99,29.93,2,0,5,0.00
2013-7-23,74,68,66,67,64,63,92,87,77,30.05,29.95,8,2,14,0.00
2013-7-24,69,66,63,64,63,61,94,90,85,30.00,29.92,8,4,13,0.00
2013-7-25,74,66,64,66,63,61,93,88,74,30.03,29.95,7,2,12,0.00
2013-7-26,74,67,65,68,64,62,93,90,82,30.10,30.00,7,2,11,0.00
2013-7-27,71,66,64,66,63,61,94,91,83,30.03,29.91,3,0,5,0.00
2013-7-28,71,64,62,65,61,59,95,90,80,29.95,29.91,3,1,5,0.00
2013-7-29,72,65,62,62,60,59,90,84,72,30.06,29.94,6,1,8,0.00
2013-7-30,72,66,61,63,60,58,90,83,74,30.14,30.06,9,2,10,0.00
2013-7-31,73,65,60,64,60,57,92,85,71,30.13,30.02,5,2,9,0.00
2013-8-1,73,66,63,64,61,59,90,84,73,30.04,29.93,5,2,8,0.00
2013-8-2,72,66,62,64,61,59,90,84,74,29.99,29.93,3,1,6,0.00
2013-8-3,74,66,63,66,61,59,89,84,74,30.02,29.96,3,1,5,0.00
2013-8-4,74,67,63,64,62,60,91,84,72,30.03,29.95,5,2,10,0.00
2013-8-5,73,65,62,64,61,60,93,87,75,30.03,29.96,5,1,9,0.00
2013-8-6,71,65,62,63,61,59,91,85,74,30.07,29.99,8,2,11,0.00
2013-8-7,74,66,62,64,61,59,91,84,71,30.10,30.00,9,2,11,0.00
2013-8-8,75,64,59,65,61,57,94,88,71,30.03,29.93,9,1,11,0.00
2013-8-9,70,65,61,63,60,59,92,85,75,29.99,29.94,2,0,6,0.00
2013-8-10,71,65,61,62,60,57,89,83,72,30.06,29.98,3,1,6,0.00
2013-8-11,74,66,63,63,61,59,90,83,69,30.02,29.92,5,1,9,0.00
2013-8-12,71,66,63,64,61,60,90,85,74,30.00,29.92,4,0,5,0.00
2013-8-13,71,65,63,65,62,61,93,89,80,30.00,29.91,3,0,9,0.00
2013-8-14,70,64,63,65,62,60,93,90,85,29.95,29.87,3,0,5,0.00
2013-8-15,69,65,63,65,63,61,95,92,85,29.96,29.91,3,1,4,0.00
2013-8-16,76,68,63,69,64,61,94,88,76,29.99,29.92,6,1,8,0.00
2013-8-17,69,66,64,65,63,61,94,91,85,29.97,29.84,10,2,12,0.00
2013-8-18,68,66,64,63,62,61,93,90,83,29.93,29.85,5,1,6,0.00
2013-8-19,73,67,65,65,63,62,92,88,77,29.98,29.89,4,1,5,0.00
2013-8-20,70,66,64,65,63,61,92,89,83,29.95,29.85,11,4,13,0.00
2013-8-21,70,65,61,64,62,59,94,90,81,29.94,29.85,9,3,12,0.00
2013-8-22,73,66,61,65,62,59,93,87,73,29.94,29.83,7,2,11,0.00
2013-8-23,69,65,61,65,62,59,94,90,84,29.89,29.76,7,2,10,0.01
2013-8-24,72,63,61,65,61,60,96,92,80,29.91,29.80,6,1,8,0.00
2013-8-25,70,64,59,65,61,58,96,92,82,29.94,29.87,7,1,11,0.00
2013-8-26,72,67,62,66,63,60,94,88,74,29.94,29.83,4,1,9,0.00
2013-8-27,78,69,65,70,65,62,93,87,74,29.86,29.79,6,1,9,0.00
2013-8-28,71,67,64,66,64,62,94,88,80,29.90,29.79,7,2,10,0.00
2013-8-29,76,69,64,70,65,62,94,86,74,29.93,29.88,3,1,8,0.00
2013-8-30,85,76,68,70,67,63,89,75,60,29.98,29.90,5,1,9,0.00
2013-8-31,78,74,72,70,68,67,90,82,75,29.97,29.89,5,1,7,0.00
2013-9-1,75,71,67,69,67,65,95,88,81,29.94,29.85,8,2,12,0.00
2013-9-2,71,67,64,68,66,63,97,94,87,29.93,29.82,6,2,9,0.00
2013-9-3,75,70,66,70,67,64,95,89,81,29.92,29.83,5,1,7,0.00
2013-9-4,77,71,68,70,67,65,93,86,70,29.91,29.84,7,2,10,0.00
2013-9-5,76,71,66,69,66,63,90,85,71,29.90,29.83,6,1,9,0.00
2013-9-6,76,71,66,70,66,63,90,85,79,29.88,29.80,6,1,9,0.00
2013-9-7,76,70,66,70,66,63,92,88,82,29.87,29.81,6,1,8,0.00
2013-9-8,71,67,63,67,64,61,93,90,85,29.87,29.77,8,2,12,0.00
2013-9-9,70,65,63,65,62,60,94,90,83,29.84,29.77,7,2,10,0.01
2013-9-10,74,67,63,66,62,59,92,85,76,29.96,29.83,5,1,8,0.00
2013-9-11,71,66,63,64,62,60,92,85,75,30.02,29.94,7,2,9,0.00
2013-9-12,69,65,60,65,62,58,94,90,86,29.95,29.84,7,2,10,0.00
2013-9-13,70,64,60,66,62,58,96,93,86,29.86,29.69,6,1,8,0.01
2013-9-14,70,64,62,66,63,61,97,95,88,29.75,29.65,7,2,11,0.01
2013-9-15,72,66,63,67,64,62,97,94,86,29.79,29.72,8,1,10,0.00
2013-9-16,72,67,64,67,64,62,96,91,81,29.83,29.76,7,2,9,0.01
2013-9-17,72,66,64,65,63,61,94,89,79,29.85,29.76,3,1,5,0.00
2013-9-18,72,67,64,64,61,59,88,82,75,29.83,29.76,5,1,7,0.00
2013-9-19,74,67,62,66,62,59,91,84,74,29.85,29.78,3,0,5,0.00
2013-9-20,68,67,66,64,62,60,91,86,80,29.91,29.83,2,0,5,0.00
2013-9-21,72,68,64,63,61,59,89,81,72,29.93,29.83,9,2,14,0.00
2013-9-22,75,67,62,65,60,53,89,79,65,29.87,29.81,7,1,10,0.00
2013-9-23,74,67,58,67,59,52,83,77,65,29.91,29.82,6,1,7,0.00
2013-9-24,79,69,61,68,62,52,90,78,68,29.94,29.85,3,0,6,0.00
2013-9-25,71,67,63,64,62,59,90,84,76,29.87,29.73,8,3,10,0.00
2013-9-26,74,66,60,62,58,53,83,75,64,29.90,29.74,10,3,15,0.00
2013-9-27,75,66,56,63,53,41,75,65,39,30.00,29.90,7,1,11,0.00
2013-9-28,77,68,58,63,53,39,74,60,42,30.06,29.96,8,1,9,0.00
2013-9-29,74,66,58,66,55,40,86,68,47,30.07,29.98,5,1,8,0.00
2013-9-30,74,65,57,66,61,54,91,86,75,30.01,29.88,4,1,6,0.00
2013-10-1,72,65,59,65,61,56,93,86,78,29.96,29.90,5,2,7,0.00
2013-10-2,72,66,64,62,60,58,85,80,73,29.99,29.91,6,1,7,0.00
2013-10-3,71,66,63,64,61,58,88,84,78,29.95,29.85,4,1,7,0.00
2013-10-4,73,67,61,65,62,57,91,82,71,30.04,29.90,4,1,7,0.00
2013-10-5,80,69,57,66,53,37,92,59,29,30.11,30.02,5,0,7,0.01
2013-10-6,80,69,60,64,49,27,72,50,22,30.08,29.96,6,1,7,0.00
2013-10-7,76,66,59,68,56,38,89,69,43,29.99,29.92,5,1,7,0.00
2013-10-8,67,63,60,60,57,53,89,79,71,29.95,29.85,7,1,9,0.00
2013-10-9,64,61,58,56,54,51,90,78,71,29.85,29.76,11,5,16,0.16
2013-10-10,68,60,51,56,52,48,88,76,63,30.04,29.83,5,1,7,0.01
2013-10-11,68,61,53,60,55,49,88,82,73,30.07,29.96,10,2,12,0.00
2013-10-12,71,62,55,63,58,52,92,86,75,30.00,29.92,5,1,8,0.00
2013-10-13,68,62,57,60,57,53,89,82,73,30.05,29.95,3,0,6,0.00
2013-10-14,70,62,53,64,58,51,93,87,79,30.05,29.91,8,2,10,0.00
2013-10-15,74,64,54,67,59,50,93,82,70,29.98,29.89,3,0,8,0.01
2013-10-16,76,67,57,64,48,34,79,51,28,30.07,29.98,4,1,7,0.00
2013-10-17,75,65,57,62,48,33,76,54,36,30.05,29.94,4,0,5,0.00
2013-10-18,70,63,55,64,55,44,87,75,61,30.03,29.94,6,1,9,0.00
2013-10-19,66,61,54,62,57,48,93,86,73,30.04,29.97,6,1,10,0.00
2013-10-20,70,62,55,62,58,53,95,88,73,30.02,29.92,4,0,7,0.00
2013-10-21,66,61,56,60,58,53,93,88,80,30.02,29.93,7,2,9,0.00
2013-10-22,66,62,58,60,58,56,93,88,81,30.03,29.93,7,2,10,0.01
2013-10-23,69,63,61,60,57,56,88,82,70,30.00,29.93,5,0,7,0.00
2013-10-24,70,63,59,61,57,55,86,81,72,30.07,29.98,9,1,10,0.00
2013-10-25,67,62,58,60,57,55,91,85,77,30.14,30.02,7,1,10,0.00
2013-10-26,63,60,56,60,58,54,95,93,91,30.12,29.98,7,2,11,0.00
2013-10-27,66,61,57,62,59,56,97,91,83,30.00,29.85,6,1,7,0.01
2013-10-28,65,61,59,58,55,52,91,80,73,29.96,29.86,7,2,11,0.00
2013-10-29,67,59,52,56,52,48,86,78,66,30.04,29.96,2,0,6,0.00
2013-10-30,69,59,52,59,53,47,84,79,69,30.09,30.01,4,1,7,0.00
2013-10-31,67,60,52,58,52,46,85,77,67,30.11,30.00,6,1,7,0.00
2013-11-1,71,62,53,60,50,41,75,66,52,30.12,29.95,5,1,9,0.00
2013-11-2,70,64,57,64,53,35,91,71,35,30.01,29.91,4,1,8,0.00
2013-11-3,66,62,56,58,55,53,89,79,74,29.95,29.85,5,1,8,0.00
2013-11-4,65,60,54,55,53,50,84,76,70,29.97,29.82,5,1,7,0.01
2013-11-5,69,60,52,61,49,27,88,70,30,30.14,29.97,7,1,9,0.00
2013-11-6,68,61,52,59,41,24,78,50,30,30.22,30.10,5,1,8,0.00
2013-11-7,71,64,54,63,45,26,78,52,29,30.12,30.00,5,1,8,0.00
2013-11-8,70,62,54,61,52,35,92,72,39,30.06,29.95,2,0,4,0.00
2013-11-9,68,58,50,59,54,47,94,85,68,30.10,30.02,4,0,5,0.00
2013-11-10,75,61,53,61,52,36,88,75,24,30.16,30.06,4,0,8,0.00
2013-11-11,68,60,50,61,54,42,90,80,52,30.15,30.04,6,1,9,0.00
2013-11-12,67,61,54,61,56,50,91,84,72,30.19,30.07,4,0,9,0.00
2013-11-13,71,64,56,64,53,45,83,68,48,30.06,29.90,5,1,8,0.00
2013-11-14,77,66,59,61,53,42,93,65,41,29.94,29.80,4,0,7,0.00
2013-11-15,66,62,58,59,57,54,94,86,78,29.81,29.70,5,2,12,0.00
2013-11-16,65,61,57,57,53,50,91,76,62,29.97,29.78,5,2,7,0.00
2013-11-17,68,60,55,58,54,50,88,80,70,30.12,29.97,3,0,6,0.00
2013-11-18,67,59,54,60,54,51,90,85,77,30.18,30.07,7,2,10,0.00
2013-11-20,66,62,60,58,58,57,95,86,76,30.08,29.92,8,1,8,0.05
2013-11-21,62,60,56,60,58,54,97,94,90,29.93,29.87,6,2,10,0.21
2013-11-22,59,55,53,54,50,43,94,81,67,29.98,29.86,1,0,7,0.01
2013-11-23,67,57,51,53,47,43,78,70,53,30.11,29.98,3,0,7,0.00
2013-11-24,66,57,50,56,49,42,81,75,67,30.22,30.11,3,0,7,0.00
2013-11-25,65,57,50,57,50,43,86,76,65,30.27,30.18,6,1,10,0.00
2013-11-26,66,59,51,58,49,40,80,69,42,30.22,30.06,7,1,8,0.00
2013-11-27,70,61,54,56,49,42,84,66,55,30.06,29.90,5,0,5,0.00
2013-11-28,66,59,52,58,50,39,80,73,56,30.08,29.92,3,0,6,0.00
2013-11-29,62,58,55,59,54,51,92,88,79,30.20,30.08,4,0,5,0.16
2013-11-30,66,60,54,60,54,50,87,82,76,30.20,30.09,6,1,8,0.00
2013-12-1,68,58,53,60,52,47,87,81,71,30.23,30.13,2,0,5,0.00
2013-12-5,68,57,51,59,44,41,73,62,55,30.14,30.03,4,1,8,0.00
2013-12-6,59,52,47,46,41,38,74,65,57,30.22,30.14,6,1,8,0.00
2013-12-7,60,53,47,54,44,39,88,73,59,30.17,30.05,11,2,18,0.03
2013-12-8,58,49,43,44,40,36,78,69,53,30.25,30.15,4,0,8,0.00
2013-12-9,62,50,40,37,25,7,75,40,17,30.32,30.23,5,0,8,0.00
2013-12-10,61,52,44,46,30,13,63,45,27,30.30,30.12,5,1,9,0.00
2013-12-11,63,54,47,54,42,24,85,64,39,30.20,30.13,4,0,6,0.00
2013-12-12,65,56,49,56,47,34,89,75,40,30.26,30.18,4,0,7,0.00
2013-12-13,64,53,46,55,47,40,90,80,70,30.28,30.17,1,0,5,0.00
2013-12-14,64,55,46,56,46,30,94,74,40,30.33,30.22,5,1,7,0.01
2013-12-15,68,59,51,57,44,27,77,58,29,30.26,30.08,3,0,6,0.00
2013-12-16,70,62,54,57,46,33,74,57,33,30.15,30.06,3,0,7,0.00
2013-12-17,71,62,54,57,49,39,87,63,38,30.15,30.03,5,0,8,0.00
2013-12-18,66,60,56,58,54,49,91,82,66,30.03,29.89,9,2,12,0.00
2013-12-19,57,53,46,52,48,42,90,85,78,29.92,29.77,8,2,12,0.06
2013-12-20,59,52,44,52,47,41,90,83,76,30.00,29.82,4,1,8,0.00
2013-12-21,60,54,48,53,48,43,86,80,73,30.13,29.97,4,1,7,0.00
2013-12-22,64,55,47,55,50,44,89,83,73,30.29,30.13,4,1,9,0.00
2013-12-23,68,57,48,56,48,42,88,72,57,30.33,30.22,6,1,10,0.00
2013-12-24,67,58,51,59,48,37,87,69,54,30.23,30.10,4,0,8,0.00
2013-12-25,73,62,52,51,40,25,68,46,20,30.21,30.11,3,0,7,0.00
2013-12-26,73,61,53,53,34,20,62,37,22,30.18,30.07,4,0,8,0.00
2013-12-27,68,59,50,56,35,20,75,42,24,30.17,30.06,4,0,6,0.00
2013-12-28,66,58,52,57,45,31,92,65,33,30.08,29.97,6,1,8,0.00
2013-12-29,66,55,47,58,50,41,94,84,60,30.17,30.04,6,0,8,0.00
2013-12-30,70,57,47,56,35,21,74,46,21,30.29,30.17,3,0,6,0.00
2013-12-31,66,54,46,58,44,23,91,69,37,30.24,30.12,3,0,7,0.00
2014-1-1,61,54,46,56,50,41,92,88,83,30.18,30.07,6,1,9,0.01
2014-1-2,59,54,48,57,50,41,95,89,76,30.14,30.03,4,1,7,0.01